Time;durP1;ratioP1;P1;durP2;ratioP2;P2;SDS_P1;SDS_P2;PMS_P1;PMS_P2;Temp;Humidity;BMP_temperature;BMP_pressure;BME280_temperature;BME280_humidity;BME280_pressure;Samples;Min_cycle;Max_cycle;Signal;HPM_P1;HPM_P2
2021/12/27 00:02:08;;;;;;;28.40;15.60;;;;;;;;;;5095854;28;20516;-65
2021/12/27 00:04:34;;;;;;;30.52;16.38;;;;;;;;;;5095784;28;20099;-66
2021/12/27 00:07:01;;;;;;;27.73;16.17;;;;;;;;;;5095751;28;20047;-66
2021/12/27 00:09:27;;;;;;;30.08;16.48;;;;;;;;;;5095996;28;20024;-64
2021/12/27 00:11:53;;;;;;;24.58;14.65;;;;;;;;;;5095677;28;20028;-65
2021/12/27 00:14:19;;;;;;;19.10;13.00;;;;;;;;;;5094284;28;20064;-66
2021/12/27 00:16:45;;;;;;;24.70;14.00;;;;;;;;;;5092731;28;20465;-65
2021/12/27 00:19:12;;;;;;;33.78;16.70;;;;;;;;;;5091441;28;20035;-64
2021/12/27 00:21:38;;;;;;;23.00;15.00;;;;;;;;;;5093776;28;20556;-65
2021/12/27 00:24:04;;;;;;;23.95;14.18;;;;;;;;;;5094097;28;20030;-65
2021/12/27 00:26:30;;;;;;;25.55;14.70;;;;;;;;;;5093143;28;20101;-65
2021/12/27 00:28:57;;;;;;;24.38;15.32;;;;;;;;;;5095642;28;20093;-66
2021/12/27 00:31:23;;;;;;;28.83;16.83;;;;;;;;;;5094651;28;20032;-67
2021/12/27 00:33:49;;;;;;;27.33;15.52;;;;;;;;;;5094591;28;20085;-67
2021/12/27 00:36:15;;;;;;;34.50;19.50;;;;;;;;;;5095442;28;20583;-65
2021/12/27 00:38:42;;;;;;;34.00;19.67;;;;;;;;;;5095402;28;20028;-64
2021/12/27 00:41:08;;;;;;;70.68;42.60;;;;;;;;;;5093746;28;20365;-65
2021/12/27 00:43:34;;;;;;;200.52;119.50;;;;;;;;;;5095289;28;20036;-65
2021/12/27 00:46:01;;;;;;;113.25;67.80;;;;;;;;;;5094986;28;20111;-65
2021/12/27 00:48:27;;;;;;;56.60;33.50;;;;;;;;;;5093605;28;20061;-67
2021/12/27 00:50:54;;;;;;;81.47;46.55;;;;;;;;;;5092239;28;20147;-65
2021/12/27 00:53:20;;;;;;;31.00;19.55;;;;;;;;;;5095019;28;20032;-65
2021/12/27 00:55:46;;;;;;;20.98;14.25;;;;;;;;;;5094462;28;20426;-67
2021/12/27 00:58:13;;;;;;;21.95;14.35;;;;;;;;;;5094815;28;20024;-67
2021/12/27 01:00:39;;;;;;;31.15;20.58;;;;;;;;;;5094697;28;20024;-65
2021/12/27 01:03:05;;;;;;;92.13;54.55;;;;;;;;;;5093314;28;20032;-67
2021/12/27 01:05:32;;;;;;;64.20;39.47;;;;;;;;;;5094591;28;20067;-65
2021/12/27 01:07:59;;;;;;;42.45;26.55;;;;;;;;;;5094824;28;20024;-66
2021/12/27 01:13:17;;;;;;;25.05;16.90;;;;;;;;;;5094502;28;20032;-67
2021/12/27 01:15:51;;;;;;;23.20;15.90;;;;;;;;;;5093007;28;20118;-67
2021/12/27 01:18:18;;;;;;;25.35;16.05;;;;;;;;;;5094456;28;20032;-67
2021/12/27 01:20:45;;;;;;;24.52;16.17;;;;;;;;;;5094294;28;20047;-68
2021/12/27 01:23:11;;;;;;;29.58;17.33;;;;;;;;;;5094285;28;20055;-67
2021/12/27 01:25:37;;;;;;;26.67;16.88;;;;;;;;;;5094181;28;20021;-66
2021/12/27 01:28:04;;;;;;;26.27;16.55;;;;;;;;;;5094255;28;20040;-68
2021/12/27 01:30:36;;;;;;;25.15;16.60;;;;;;;;;;5092801;28;20020;-67
2021/12/27 01:33:03;;;;;;;19.08;13.57;;;;;;;;;;5092870;28;20024;-68
2021/12/27 01:35:30;;;;;;;22.20;14.90;;;;;;;;;;5094002;28;20043;-67
2021/12/27 01:37:56;;;;;;;21.38;15.13;;;;;;;;;;5093952;28;20150;-68
2021/12/27 01:40:25;;;;;;;19.70;13.73;;;;;;;;;;5092766;28;20028;-66
2021/12/27 01:43:01;;;;;;;23.40;14.35;;;;;;;;;;5094168;28;20547;-67
2021/12/27 01:45:28;;;;;;;21.90;14.13;;;;;;;;;;5092242;28;20032;-65
2021/12/27 01:47:54;;;;;;;24.23;15.45;;;;;;;;;;5093884;28;20114;-66
2021/12/27 01:50:20;;;;;;;23.58;15.50;;;;;;;;;;5093324;28;20048;-66
2021/12/27 01:52:47;;;;;;;25.08;15.52;;;;;;;;;;5093744;28;20032;-65
2021/12/27 01:55:13;;;;;;;22.50;13.88;;;;;;;;;;5093639;28;20141;-65
2021/12/27 01:57:39;;;;;;;24.58;14.98;;;;;;;;;;5093732;28;20368;-67
2021/12/27 02:00:06;;;;;;;28.42;15.77;;;;;;;;;;5092063;28;20115;-66
2021/12/27 02:02:33;;;;;;;22.65;14.80;;;;;;;;;;5093588;28;20118;-66
2021/12/27 02:04:59;;;;;;;23.33;15.55;;;;;;;;;;5093562;28;20036;-68
2021/12/27 02:07:25;;;;;;;22.60;14.48;;;;;;;;;;5093529;28;20024;-68
2021/12/27 02:10:02;;;;;;;20.02;14.10;;;;;;;;;;5093283;28;20094;-66
2021/12/27 02:12:31;;;;;;;20.02;14.00;;;;;;;;;;5092155;28;20388;-66
2021/12/27 02:14:57;;;;;;;18.88;13.65;;;;;;;;;;5092037;28;20036;-67
2021/12/27 02:17:24;;;;;;;22.02;15.18;;;;;;;;;;5093343;28;20024;-67
2021/12/27 02:19:51;;;;;;;24.85;14.73;;;;;;;;;;5092116;28;20048;-65
2021/12/27 02:22:18;;;;;;;23.85;14.85;;;;;;;;;;5093285;28;20039;-66
2021/12/27 02:24:44;;;;;;;22.67;14.93;;;;;;;;;;5093006;28;20128;-68
2021/12/27 02:27:14;;;;;;;27.08;16.70;;;;;;;;;;5091935;28;20028;-67
2021/12/27 02:29:40;;;;;;;22.23;15.68;;;;;;;;;;5093220;28;20528;-67
2021/12/27 02:32:07;;;;;;;20.95;14.27;;;;;;;;;;5093234;28;20056;-67
2021/12/27 02:34:33;;;;;;;22.25;14.73;;;;;;;;;;5093125;28;20032;-67
2021/12/27 02:37:00;;;;;;;22.58;14.43;;;;;;;;;;5093134;28;20020;-67
2021/12/27 02:39:26;;;;;;;25.02;14.50;;;;;;;;;;5091918;28;20567;-66
2021/12/27 02:41:53;;;;;;;22.50;14.25;;;;;;;;;;5093110;28;20039;-67
2021/12/27 02:44:19;;;;;;;23.17;14.13;;;;;;;;;;5091727;28;20115;-66
2021/12/27 02:46:45;;;;;;;19.63;13.02;;;;;;;;;;5091785;28;20024;-67
2021/12/27 02:49:11;;;;;;;20.73;13.13;;;;;;;;;;5091776;28;20027;-68
2021/12/27 02:51:37;;;;;;;24.42;14.38;;;;;;;;;;5091219;28;20102;-67
2021/12/27 02:54:04;;;;;;;20.80;13.13;;;;;;;;;;5092971;28;20111;-67
2021/12/27 02:56:30;;;;;;;20.42;13.18;;;;;;;;;;5091636;28;20028;-67
2021/12/27 02:58:57;;;;;;;17.75;11.63;;;;;;;;;;5091695;28;20376;-67
2021/12/27 03:01:24;;;;;;;19.98;12.93;;;;;;;;;;5092917;28;20066;-67
2021/12/27 03:03:51;;;;;;;21.25;13.45;;;;;;;;;;5093167;28;20084;-66
2021/12/27 03:06:18;;;;;;;16.63;11.82;;;;;;;;;;5092863;28;20540;-66
2021/12/27 03:08:45;;;;;;;17.02;11.70;;;;;;;;;;5092898;28;20099;-65
2021/12/27 03:11:11;;;;;;;17.10;11.80;;;;;;;;;;5092959;28;20020;-66
2021/12/27 03:13:40;;;;;;;16.08;10.90;;;;;;;;;;5095390;28;20130;-66
2021/12/27 03:16:11;;;;;;;14.75;10.10;;;;;;;;;;5096690;28;20032;-67
2021/12/27 03:18:39;;;;;;;19.52;12.40;;;;;;;;;;5096485;28;20475;-67
2021/12/27 03:21:06;;;;;;;14.30;10.27;;;;;;;;;;5095370;28;20036;-68
2021/12/27 03:23:33;;;;;;;16.73;10.95;;;;;;;;;;5095574;28;20376;-66
2021/12/27 03:25:59;;;;;;;17.45;12.07;;;;;;;;;;5096552;28;20052;-68
2021/12/27 03:28:26;;;;;;;18.90;10.25;;;;;;;;;;5095217;28;20039;-65
2021/12/27 03:30:52;;;;;;;14.65;9.75;;;;;;;;;;5095216;28;20016;-66
2021/12/27 03:33:23;;;;;;;13.80;9.63;;;;;;;;;;5096342;28;20024;-66
2021/12/27 03:36:04;;;;;;;12.25;9.25;;;;;;;;;;5096457;28;20020;-65
2021/12/27 03:38:33;;;;;;;15.00;9.57;;;;;;;;;;5096415;28;20103;-67
2021/12/27 03:41:00;;;;;;;15.00;9.90;;;;;;;;;;5094971;28;20032;-66
2021/12/27 03:43:26;;;;;;;14.20;9.63;;;;;;;;;;5096198;28;20062;-66
2021/12/27 03:45:52;;;;;;;15.18;10.05;;;;;;;;;;5096164;28;20026;-66
2021/12/27 03:48:18;;;;;;;17.42;11.55;;;;;;;;;;5096476;28;20055;-67
2021/12/27 03:50:45;;;;;;;17.17;10.48;;;;;;;;;;5094516;28;20048;-66
2021/12/27 03:53:11;;;;;;;15.23;10.15;;;;;;;;;;5096298;28;20031;-66
2021/12/27 03:55:37;;;;;;;15.65;11.18;;;;;;;;;;5095934;28;20048;-65
2021/12/27 03:58:30;;;;;;;17.15;10.52;;;;;;;;;;5094654;28;20161;-66
2021/12/27 04:01:03;;;;;;;15.85;10.88;;;;;;;;;;5095966;28;20020;-66
2021/12/27 04:03:30;;;;;;;14.68;10.52;;;;;;;;;;5095928;28;20031;-66
2021/12/27 04:05:57;;;;;;;17.70;11.32;;;;;;;;;;5094507;28;20062;-65
2021/12/27 04:08:26;;;;;;;16.48;10.57;;;;;;;;;;5095784;28;20107;-65
2021/12/27 04:10:53;;;;;;;16.38;11.48;;;;;;;;;;5094476;28;20024;-65
2021/12/27 04:13:21;;;;;;;18.40;12.50;;;;;;;;;;5095624;28;20050;-65
2021/12/27 04:15:48;;;;;;;18.23;12.43;;;;;;;;;;5094314;28;20024;-66
2021/12/27 04:18:15;;;;;;;18.48;12.40;;;;;;;;;;5094275;28;20372;-65
2021/12/27 04:20:41;;;;;;;17.10;12.10;;;;;;;;;;5095587;28;20020;-66
2021/12/27 04:23:07;;;;;;;18.52;11.68;;;;;;;;;;5095275;28;20032;-65
2021/12/27 04:25:34;;;;;;;15.95;11.63;;;;;;;;;;5095092;28;20066;-65
2021/12/27 04:28:01;;;;;;;15.40;11.25;;;;;;;;;;5095377;28;20169;-65
2021/12/27 04:30:27;;;;;;;17.95;12.00;;;;;;;;;;5095356;28;20035;-65
2021/12/27 04:32:53;;;;;;;18.58;12.00;;;;;;;;;;5095249;28;20024;-66
2021/12/27 04:35:21;;;;;;;18.95;12.30;;;;;;;;;;5093835;28;20123;-65
2021/12/27 04:37:48;;;;;;;18.63;12.30;;;;;;;;;;5093911;28;20020;-65
2021/12/27 04:40:15;;;;;;;20.50;12.82;;;;;;;;;;5094997;28;20099;-65
2021/12/27 04:42:44;;;;;;;18.00;11.23;;;;;;;;;;5093790;28;20020;-65
2021/12/27 04:45:14;;;;;;;17.27;12.02;;;;;;;;;;5095231;28;20038;-65
2021/12/27 04:47:42;;;;;;;18.80;12.20;;;;;;;;;;5093688;28;20070;-65
2021/12/27 04:50:08;;;;;;;20.73;12.60;;;;;;;;;;5093342;28;20052;-66
2021/12/27 04:52:34;;;;;;;22.70;12.70;;;;;;;;;;5094896;28;20027;-69
2021/12/27 04:55:01;;;;;;;18.63;11.63;;;;;;;;;;5094723;28;20036;-68
2021/12/27 04:57:28;;;;;;;17.38;11.35;;;;;;;;;;5094790;28;20428;-65
2021/12/27 04:59:54;;;;;;;18.15;11.07;;;;;;;;;;5094807;28;20031;-65
2021/12/27 05:02:21;;;;;;;16.65;11.68;;;;;;;;;;5094601;28;20111;-68
2021/12/27 05:04:47;;;;;;;15.75;10.73;;;;;;;;;;5093326;28;20039;-69
2021/12/27 05:07:13;;;;;;;17.20;10.77;;;;;;;;;;5094310;28;20162;-66
2021/12/27 05:09:39;;;;;;;18.58;11.95;;;;;;;;;;5093182;28;20024;-67
2021/12/27 05:12:06;;;;;;;21.67;14.27;;;;;;;;;;5093150;28;20024;-67
2021/12/27 05:14:32;;;;;;;44.03;23.08;;;;;;;;;;5094522;28;20127;-70
2021/12/27 05:16:59;;;;;;;35.40;20.70;;;;;;;;;;5094405;28;20027;-68
2021/12/27 05:19:25;;;;;;;36.58;20.65;;;;;;;;;;5093081;28;20143;-65
2021/12/27 05:21:51;;;;;;;31.30;17.15;;;;;;;;;;5093051;28;20028;-68
2021/12/27 05:24:19;;;;;;;32.97;18.75;;;;;;;;;;5094521;28;20128;-69
2021/12/27 05:26:45;;;;;;;28.77;17.35;;;;;;;;;;5094243;28;20023;-66
2021/12/27 05:29:11;;;;;;;27.92;16.17;;;;;;;;;;5092860;28;20482;-68
2021/12/27 05:31:37;;;;;;;24.13;15.27;;;;;;;;;;5094158;28;20034;-67
2021/12/27 05:34:04;;;;;;;27.27;16.08;;;;;;;;;;5093523;28;20067;-67
2021/12/27 05:36:30;;;;;;;24.48;15.20;;;;;;;;;;5094007;28;20448;-67
2021/12/27 05:38:56;;;;;;;22.50;14.95;;;;;;;;;;5092676;28;20031;-66
2021/12/27 05:41:23;;;;;;;26.52;15.52;;;;;;;;;;5092697;28;20034;-66
2021/12/27 05:43:49;;;;;;;24.95;15.40;;;;;;;;;;5093964;28;20464;-65
2021/12/27 05:46:15;;;;;;;25.33;15.23;;;;;;;;;;5093878;28;20503;-66
2021/12/27 05:48:41;;;;;;;27.30;16.27;;;;;;;;;;5093791;28;20039;-69
2021/12/27 05:51:08;;;;;;;30.90;17.13;;;;;;;;;;5093756;28;20080;-66
2021/12/27 05:53:34;;;;;;;27.40;16.83;;;;;;;;;;5092339;28;20031;-66
2021/12/27 05:56:00;;;;;;;28.98;17.95;;;;;;;;;;5092360;28;20488;-64
2021/12/27 05:58:26;;;;;;;30.55;18.55;;;;;;;;;;5093516;28;20024;-64
2021/12/27 06:00:53;;;;;;;38.50;21.08;;;;;;;;;;5093669;28;20024;-63
2021/12/27 06:03:20;;;;;;;40.63;23.02;;;;;;;;;;5093530;28;20370;-63
2021/12/27 06:05:46;;;;;;;44.17;25.70;;;;;;;;;;5093495;28;20032;-65
2021/12/27 06:08:13;;;;;;;37.35;21.35;;;;;;;;;;5092140;28;20465;-63
2021/12/27 06:10:39;;;;;;;40.95;23.77;;;;;;;;;;5093403;28;20024;-63
2021/12/27 06:13:05;;;;;;;42.85;24.65;;;;;;;;;;5091956;28;20020;-63
2021/12/27 06:15:31;;;;;;;45.58;25.65;;;;;;;;;;5091922;28;20032;-64
2021/12/27 06:17:57;;;;;;;43.00;24.95;;;;;;;;;;5093620;28;20181;-63
2021/12/27 06:20:24;;;;;;;44.45;25.08;;;;;;;;;;5092004;28;20477;-63
2021/12/27 06:22:54;;;;;;;44.40;25.85;;;;;;;;;;5091961;28;20020;-62
2021/12/27 06:25:21;;;;;;;45.92;25.88;;;;;;;;;;5093381;28;20024;-63
2021/12/27 06:27:47;;;;;;;46.85;27.00;;;;;;;;;;5091920;28;20056;-64
2021/12/27 06:30:14;;;;;;;50.85;28.05;;;;;;;;;;5093028;28;20111;-64
2021/12/27 06:32:40;;;;;;;50.45;28.77;;;;;;;;;;5093149;28;20020;-64
2021/12/27 06:35:08;;;;;;;49.30;28.65;;;;;;;;;;5093067;28;20032;-65
2021/12/27 06:37:34;;;;;;;44.13;26.15;;;;;;;;;;5091570;28;20387;-64
2021/12/27 06:40:01;;;;;;;41.60;26.05;;;;;;;;;;5091634;28;20020;-64
2021/12/27 06:42:27;;;;;;;35.67;22.00;;;;;;;;;;5093004;28;20496;-64
2021/12/27 06:44:54;;;;;;;31.73;19.73;;;;;;;;;;5091556;28;20043;-64
2021/12/27 06:47:20;;;;;;;33.17;20.52;;;;;;;;;;5095012;28;20028;-64
2021/12/27 06:49:48;;;;;;;39.30;21.50;;;;;;;;;;5096703;28;20056;-64
2021/12/27 06:52:14;;;;;;;44.50;26.65;;;;;;;;;;5097239;28;20028;-67
2021/12/27 06:54:41;;;;;;;57.92;31.85;;;;;;;;;;5095683;28;20548;-64
2021/12/27 06:57:08;;;;;;;46.47;27.05;;;;;;;;;;5097007;28;20146;-64
2021/12/27 06:59:34;;;;;;;51.22;29.02;;;;;;;;;;5095688;28;20032;-64
2021/12/27 07:02:01;;;;;;;39.58;23.67;;;;;;;;;;5096906;28;20423;-64
2021/12/27 07:04:27;;;;;;;34.88;22.15;;;;;;;;;;5095630;28;20515;-64
2021/12/27 07:06:53;;;;;;;34.67;21.67;;;;;;;;;;5094799;28;20021;-65
2021/12/27 07:09:19;;;;;;;32.20;20.02;;;;;;;;;;5094863;28;20052;-65
2021/12/27 07:11:46;;;;;;;30.67;19.10;;;;;;;;;;5094299;28;20107;-64
2021/12/27 07:14:12;;;;;;;35.40;19.83;;;;;;;;;;5093479;28;20040;-65
2021/12/27 07:16:38;;;;;;;30.73;19.33;;;;;;;;;;5094007;28;20477;-64
2021/12/27 07:19:04;;;;;;;35.92;21.02;;;;;;;;;;5094294;28;20066;-64
2021/12/27 07:21:31;;;;;;;39.95;23.40;;;;;;;;;;5096233;28;20485;-64
2021/12/27 07:23:57;;;;;;;39.15;23.13;;;;;;;;;;5096463;28;20028;-64
2021/12/27 07:26:23;;;;;;;30.10;18.08;;;;;;;;;;5096203;28;20411;-65
2021/12/27 07:28:49;;;;;;;23.25;14.30;;;;;;;;;;5096027;28;20459;-66
2021/12/27 07:31:15;;;;;;;28.67;15.63;;;;;;;;;;5096480;28;20133;-65
2021/12/27 07:33:42;;;;;;;24.75;15.80;;;;;;;;;;5096224;28;20020;-64
2021/12/27 07:36:10;;;;;;;27.48;15.15;;;;;;;;;;5096569;28;20020;-64
2021/12/27 07:38:37;;;;;;;25.63;15.77;;;;;;;;;;5095857;28;20457;-65
2021/12/27 07:41:03;;;;;;;23.80;14.90;;;;;;;;;;5096228;28;20493;-65
2021/12/27 07:43:29;;;;;;;21.73;14.13;;;;;;;;;;5094875;28;20035;-65
2021/12/27 07:45:55;;;;;;;23.38;13.98;;;;;;;;;;5096101;28;20112;-65
2021/12/27 07:48:22;;;;;;;21.20;13.38;;;;;;;;;;5096068;28;20054;-66
2021/12/27 07:50:48;;;;;;;25.13;15.25;;;;;;;;;;5095529;28;20048;-64
2021/12/27 07:53:14;;;;;;;29.38;15.65;;;;;;;;;;5095968;28;20088;-65
2021/12/27 07:55:41;;;;;;;25.60;15.43;;;;;;;;;;5094619;28;20043;-65
2021/12/27 07:58:07;;;;;;;23.98;14.15;;;;;;;;;;5093969;28;20035;-66
2021/12/27 08:00:33;;;;;;;24.70;14.55;;;;;;;;;;5094477;28;20024;-65
2021/12/27 08:02:59;;;;;;;19.40;13.30;;;;;;;;;;5093879;28;20077;-66
2021/12/27 08:05:26;;;;;;;20.38;12.98;;;;;;;;;;5094278;28;20032;-64
2021/12/27 08:07:52;;;;;;;33.35;19.17;;;;;;;;;;5095633;28;20074;-65
2021/12/27 08:10:19;;;;;;;29.02;15.98;;;;;;;;;;5088460;28;20089;-65
2021/12/27 08:12:45;;;;;;;27.25;15.98;;;;;;;;;;5094620;28;20051;-65
2021/12/27 08:15:12;;;;;;;26.98;15.98;;;;;;;;;;5091751;28;20040;-65
2021/12/27 08:17:38;;;;;;;17.67;12.27;;;;;;;;;;5090467;28;20524;-67
2021/12/27 08:20:06;;;;;;;15.55;10.80;;;;;;;;;;5095499;28;20035;-67
2021/12/27 08:22:32;;;;;;;18.33;12.27;;;;;;;;;;5094044;28;20036;-68
2021/12/27 08:24:58;;;;;;;20.05;12.68;;;;;;;;;;5095338;28;20042;-68
2021/12/27 08:27:26;;;;;;;20.55;11.05;;;;;;;;;;5095109;28;20379;-68
2021/12/27 08:29:52;;;;;;;18.00;11.25;;;;;;;;;;5093801;28;20073;-68
2021/12/27 08:32:19;;;;;;;17.10;11.77;;;;;;;;;;5093773;28;20027;-68
2021/12/27 08:34:45;;;;;;;16.73;12.15;;;;;;;;;;5095152;28;20078;-68
2021/12/27 08:37:11;;;;;;;14.25;10.25;;;;;;;;;;5095007;28;20024;-67
2021/12/27 08:39:38;;;;;;;15.85;10.80;;;;;;;;;;5095135;28;20038;-66
2021/12/27 08:42:10;;;;;;;14.57;9.40;;;;;;;;;;5093732;28;20020;-69
2021/12/27 08:44:37;;;;;;;17.30;12.48;;;;;;;;;;5095054;28;20396;-67
2021/12/27 08:47:06;;;;;;;21.02;12.00;;;;;;;;;;5093090;28;20056;-68
2021/12/27 08:49:32;;;;;;;16.73;11.65;;;;;;;;;;5094610;28;20373;-69
2021/12/27 08:51:59;;;;;;;22.10;13.05;;;;;;;;;;5094715;28;20028;-67
2021/12/27 08:54:25;;;;;;;17.15;11.48;;;;;;;;;;5094689;28;20036;-66
2021/12/27 08:56:51;;;;;;;14.25;9.07;;;;;;;;;;5094674;28;20107;-66
2021/12/27 08:59:17;;;;;;;25.10;13.52;;;;;;;;;;5094613;28;20020;-66
2021/12/27 09:01:43;;;;;;;23.23;14.43;;;;;;;;;;5094851;28;20461;-66
2021/12/27 09:04:10;;;;;;;14.48;9.88;;;;;;;;;;5094415;28;20111;-66
2021/12/27 09:06:36;;;;;;;15.32;10.13;;;;;;;;;;5094396;28;20027;-66
2021/12/27 09:09:03;;;;;;;15.48;10.35;;;;;;;;;;5092240;28;20158;-67
2021/12/27 09:11:30;;;;;;;15.02;10.43;;;;;;;;;;5093979;28;20487;-67
2021/12/27 09:13:56;;;;;;;22.27;15.68;;;;;;;;;;5094293;28;20059;-66
2021/12/27 09:16:22;;;;;;;18.70;12.13;;;;;;;;;;5094340;28;20055;-67
2021/12/27 09:18:48;;;;;;;20.95;13.43;;;;;;;;;;5094346;28;20028;-67
2021/12/27 09:21:15;;;;;;;15.43;10.43;;;;;;;;;;5094216;28;20070;-66
2021/12/27 09:23:41;;;;;;;13.05;8.88;;;;;;;;;;5092940;28;20107;-66
2021/12/27 09:26:07;;;;;;;20.05;13.35;;;;;;;;;;5091122;28;20047;-72
2021/12/27 09:28:33;;;;;;;19.90;13.13;;;;;;;;;;5092026;28;20030;-66
2021/12/27 09:31:00;;;;;;;15.73;10.05;;;;;;;;;;5091783;28;20058;-65
2021/12/27 09:33:26;;;;;;;22.83;12.68;;;;;;;;;;5094040;28;20024;-64
2021/12/27 09:35:53;;;;;;;19.60;11.88;;;;;;;;;;5092101;28;20048;-71
2021/12/27 09:38:19;;;;;;;17.95;11.43;;;;;;;;;;5093785;28;20031;-64
2021/12/27 09:40:45;;;;;;;30.98;15.45;;;;;;;;;;5093636;28;20031;-68
2021/12/27 09:43:11;;;;;;;17.80;10.68;;;;;;;;;;5092325;28;20109;-66
2021/12/27 09:45:38;;;;;;;13.18;9.73;;;;;;;;;;5093827;28;20032;-66
2021/12/27 09:48:04;;;;;;;19.75;11.68;;;;;;;;;;5092507;28;20027;-66
2021/12/27 09:50:34;;;;;;;18.80;12.80;;;;;;;;;;5092084;28;20091;-67
2021/12/27 09:53:00;;;;;;;22.73;13.73;;;;;;;;;;5092426;28;20119;-68
2021/12/27 09:55:27;;;;;;;18.63;11.07;;;;;;;;;;5092275;28;20035;-68
2021/12/27 09:57:53;;;;;;;18.67;10.98;;;;;;;;;;5093662;28;20058;-68
2021/12/27 10:00:20;;;;;;;16.63;11.68;;;;;;;;;;5093345;28;20056;-68
2021/12/27 10:02:49;;;;;;;15.73;10.77;;;;;;;;;;5093516;28;20030;-68
2021/12/27 10:05:15;;;;;;;18.80;11.95;;;;;;;;;;5093140;28;20084;-67
2021/12/27 10:07:41;;;;;;;14.80;9.88;;;;;;;;;;5093573;28;20024;-68
2021/12/27 10:10:11;;;;;;;18.42;11.48;;;;;;;;;;5093372;28;20052;-68
2021/12/27 10:12:37;;;;;;;15.98;11.82;;;;;;;;;;5093379;28;20020;-68
2021/12/27 10:15:06;;;;;;;15.85;11.23;;;;;;;;;;5093182;28;20427;-68
2021/12/27 10:17:34;;;;;;;17.92;13.32;;;;;;;;;;5093154;28;20106;-66
2021/12/27 10:20:10;;;;;;;17.50;13.00;;;;;;;;;;5091733;28;20028;-66
2021/12/27 10:22:40;;;;;;;17.27;12.50;;;;;;;;;;5092193;28;20422;-65
2021/12/27 10:25:27;;;;;;;14.77;10.77;;;;;;;;;;5091664;28;20129;-65
2021/12/27 10:27:55;;;;;;;23.60;16.35;;;;;;;;;;5093162;28;20068;-66
2021/12/27 10:30:23;;;;;;;19.15;13.23;;;;;;;;;;5092779;28;20024;-66
2021/12/27 10:33:01;;;;;;;21.00;14.15;;;;;;;;;;5090852;28;20077;-66
2021/12/27 10:35:38;;;;;;;27.15;16.42;;;;;;;;;;5091299;28;20078;-66
2021/12/27 10:38:24;;;;;;;27.67;16.27;;;;;;;;;;5093067;28;20030;-66
2021/12/27 10:40:58;;;;;;;20.85;14.73;;;;;;;;;;5093067;28;20154;-67
2021/12/27 10:43:36;;;;;;;22.90;15.73;;;;;;;;;;5091722;28;20028;-66
2021/12/27 10:46:03;;;;;;;21.27;14.90;;;;;;;;;;5091467;28;20410;-67
2021/12/27 10:48:34;;;;;;;19.27;12.68;;;;;;;;;;5092890;28;20373;-67
2021/12/27 10:51:00;;;;;;;19.13;12.93;;;;;;;;;;5092432;28;20047;-68
2021/12/27 10:53:26;;;;;;;17.00;11.77;;;;;;;;;;5092914;28;20457;-68
2021/12/27 10:55:54;;;;;;;19.80;12.35;;;;;;;;;;5092656;28;20045;-67
2021/12/27 10:58:30;;;;;;;14.55;10.07;;;;;;;;;;5092774;28;20025;-67
2021/12/27 11:00:57;;;;;;;19.40;12.25;;;;;;;;;;5092846;28;20380;-66
2021/12/27 11:03:28;;;;;;;19.38;11.68;;;;;;;;;;5091636;28;20032;-66
2021/12/27 11:05:54;;;;;;;21.77;14.02;;;;;;;;;;5090788;28;20477;-66
2021/12/27 11:08:21;;;;;;;20.27;12.75;;;;;;;;;;5092385;28;20465;-68
2021/12/27 11:10:47;;;;;;;21.85;13.10;;;;;;;;;;5090950;28;20020;-66
2021/12/27 11:13:13;;;;;;;21.45;13.98;;;;;;;;;;5092316;28;20024;-67
2021/12/27 11:15:42;;;;;;;23.42;14.65;;;;;;;;;;5092292;28;20054;-67
2021/12/27 11:18:08;;;;;;;25.27;15.85;;;;;;;;;;5092394;28;20402;-67
2021/12/27 11:20:35;;;;;;;38.58;19.92;;;;;;;;;;5079697;28;20044;-67
2021/12/27 11:23:02;;;;;;;50.38;20.67;;;;;;;;;;5091137;28;20017;-68
2021/12/27 11:25:33;;;;;;;30.88;16.52;;;;;;;;;;5091106;28;20119;-66
2021/12/27 11:28:00;;;;;;;19.48;12.18;;;;;;;;;;5090847;28;20028;-66
2021/12/27 11:30:29;;;;;;;20.42;12.93;;;;;;;;;;5092314;28;20083;-66
2021/12/27 11:33:04;;;;;;;24.95;14.48;;;;;;;;;;5093466;28;20020;-66
2021/12/27 11:35:31;;;;;;;21.52;13.60;;;;;;;;;;5096329;28;20043;-65
2021/12/27 11:38:01;;;;;;;20.70;13.32;;;;;;;;;;5096151;28;20031;-68
2021/12/27 11:40:39;;;;;;;24.35;15.38;;;;;;;;;;5095742;28;20016;-67
2021/12/27 11:43:05;;;;;;;25.95;17.20;;;;;;;;;;5079725;28;20029;-67
2021/12/27 11:45:54;;;;;;;25.35;15.65;;;;;;;;;;5090193;28;20032;-65
2021/12/27 11:48:22;;;;;;;22.52;15.25;;;;;;;;;;5084080;28;20798;-65
2021/12/27 11:50:57;;;;;;;22.60;14.73;;;;;;;;;;5082072;28;20052;-65
2021/12/27 11:53:28;;;;;;;27.77;17.33;;;;;;;;;;5090422;28;20021;-66
2021/12/27 11:55:55;;;;;;;23.45;15.23;;;;;;;;;;5089950;28;20036;-73
2021/12/27 11:58:32;;;;;;;23.02;15.02;;;;;;;;;;5094271;28;20027;-67
2021/12/27 12:00:59;;;;;;;21.73;14.75;;;;;;;;;;5095605;28;20032;-67
2021/12/27 12:03:42;;;;;;;28.05;16.88;;;;;;;;;;5095545;28;20464;-67
2021/12/27 12:06:28;;;;;;;54.85;28.17;;;;;;;;;;5095538;28;20055;-66
2021/12/27 12:08:54;;;;;;;28.25;16.95;;;;;;;;;;5095112;28;20031;-66
2021/12/27 12:11:30;;;;;;;25.27;15.25;;;;;;;;;;5095470;28;20412;-67
2021/12/27 12:13:57;;;;;;;21.63;15.07;;;;;;;;;;5095573;28;20032;-67
2021/12/27 12:16:23;;;;;;;22.48;14.65;;;;;;;;;;5095269;28;20108;-66
2021/12/27 12:18:52;;;;;;;25.83;15.95;;;;;;;;;;5095539;28;20016;-66
2021/12/27 12:21:34;;;;;;;32.40;18.15;;;;;;;;;;5095132;28;20396;-66
2021/12/27 12:24:02;;;;;;;30.20;16.85;;;;;;;;;;5095411;28;20133;-67
2021/12/27 12:26:28;;;;;;;31.13;17.35;;;;;;;;;;5093737;28;20120;-67
2021/12/27 12:29:04;;;;;;;24.80;15.00;;;;;;;;;;5093663;28;20027;-67
2021/12/27 12:31:32;;;;;;;26.80;16.08;;;;;;;;;;5094741;28;20094;-67
2021/12/27 12:34:12;;;;;;;57.65;29.73;;;;;;;;;;5094451;28;20040;-66
2021/12/27 12:37:04;;;;;;;28.45;17.50;;;;;;;;;;5094896;28;20024;-68
2021/12/27 12:39:49;;;;;;;32.78;19.85;;;;;;;;;;5090358;28;20038;-65
2021/12/27 12:42:15;;;;;;;38.20;20.80;;;;;;;;;;5092897;28;20361;-66
2021/12/27 12:44:49;;;;;;;36.92;20.23;;;;;;;;;;5094461;28;20024;-67
2021/12/27 12:47:16;;;;;;;36.33;20.50;;;;;;;;;;5090699;28;20024;-67
2021/12/27 12:49:42;;;;;;;32.55;19.20;;;;;;;;;;5093605;28;20031;-66
2021/12/27 12:52:08;;;;;;;35.95;22.15;;;;;;;;;;5093300;28;20461;-66
2021/12/27 12:54:36;;;;;;;24.13;15.52;;;;;;;;;;5094699;28;20032;-66
2021/12/27 12:57:24;;;;;;;27.52;16.42;;;;;;;;;;5094182;28;20485;-65
2021/12/27 12:59:53;;;;;;;32.65;19.88;;;;;;;;;;5094576;28;20024;-67
2021/12/27 13:02:21;;;;;;;25.50;16.05;;;;;;;;;;5094223;28;20020;-67
2021/12/27 13:04:58;;;;;;;24.58;15.20;;;;;;;;;;5093050;28;20031;-66
2021/12/27 13:07:33;;;;;;;25.55;16.13;;;;;;;;;;5093052;28;20123;-66
2021/12/27 13:10:01;;;;;;;20.65;13.65;;;;;;;;;;5093038;28;20062;-66
2021/12/27 13:12:27;;;;;;;24.52;14.98;;;;;;;;;;5092678;28;20081;-65
2021/12/27 13:14:54;;;;;;;22.70;14.88;;;;;;;;;;5094320;28;20039;-66
2021/12/27 13:17:29;;;;;;;25.00;15.68;;;;;;;;;;5094721;28;20052;-65
2021/12/27 13:19:58;;;;;;;22.92;14.32;;;;;;;;;;5093928;28;20419;-66
2021/12/27 13:22:51;;;;;;;25.17;14.98;;;;;;;;;;5092817;28;20028;-65
2021/12/27 13:25:36;;;;;;;34.72;20.95;;;;;;;;;;5091031;28;20051;-66
2021/12/27 13:28:15;;;;;;;34.10;19.45;;;;;;;;;;5094103;28;20039;-65
2021/12/27 13:30:46;;;;;;;31.20;18.13;;;;;;;;;;5094020;28;20022;-66
2021/12/27 13:33:12;;;;;;;35.90;20.60;;;;;;;;;;5094129;28;20374;-66
2021/12/27 13:35:42;;;;;;;37.63;22.85;;;;;;;;;;5092487;28;20035;-66
2021/12/27 13:38:22;;;;;;;31.52;19.23;;;;;;;;;;5093877;28;20020;-66
2021/12/27 13:40:51;;;;;;;31.65;18.85;;;;;;;;;;5092405;28;20028;-66
2021/12/27 13:43:18;;;;;;;34.17;21.52;;;;;;;;;;5093648;28;20465;-66
2021/12/27 13:45:45;;;;;;;33.58;19.38;;;;;;;;;;5093663;28;20020;-66
2021/12/27 13:48:12;;;;;;;35.35;20.65;;;;;;;;;;5092334;28;20027;-66
2021/12/27 13:50:39;;;;;;;36.38;21.35;;;;;;;;;;5093321;28;20172;-66
2021/12/27 13:53:13;;;;;;;35.97;20.77;;;;;;;;;;5093363;28;20020;-66
2021/12/27 13:55:39;;;;;;;44.85;21.67;;;;;;;;;;5093010;28;20036;-67
2021/12/27 13:58:23;;;;;;;37.40;21.00;;;;;;;;;;5093710;28;20048;-67
2021/12/27 14:00:53;;;;;;;38.50;22.05;;;;;;;;;;5092608;28;20517;-65
2021/12/27 14:06:23;;;;;;;41.67;23.33;;;;;;;;;;5087477;28;20059;-66
2021/12/27 14:08:57;;;;;;;36.33;22.25;;;;;;;;;;5093395;28;20028;-66
2021/12/27 14:11:24;;;;;;;39.13;22.92;;;;;;;;;;5093379;28;20024;-66
2021/12/27 14:13:58;;;;;;;38.25;22.77;;;;;;;;;;5093170;28;20087;-66
2021/12/27 14:16:32;;;;;;;34.97;20.60;;;;;;;;;;5092811;28;20495;-67
2021/12/27 14:19:01;;;;;;;38.00;21.00;;;;;;;;;;5091754;28;20040;-67
2021/12/27 14:21:28;;;;;;;35.95;20.38;;;;;;;;;;5091945;28;20040;-66
2021/12/27 14:24:07;;;;;;;52.03;28.30;;;;;;;;;;5093174;28;20020;-68
2021/12/27 14:26:34;;;;;;;39.00;21.25;;;;;;;;;;5093236;28;20072;-67
2021/12/27 14:29:20;;;;;;;40.10;22.73;;;;;;;;;;5093180;28;20055;-68